createdAt,value
2023-02-19T00:00:49.163Z,969.13
2023-02-19T00:01:49.159Z,969.18
2023-02-19T00:02:49.101Z,969.09
2023-02-19T00:03:49.164Z,969.13
2023-02-19T00:04:49.160Z,969.09
2023-02-19T00:05:49.111Z,969.10
2023-02-19T00:06:49.102Z,969.06
2023-02-19T00:07:49.091Z,969.12
2023-02-19T00:08:49.032Z,969.08
2023-02-19T00:09:49.022Z,969.12
2023-02-19T00:10:49.035Z,969.08
2023-02-19T00:11:49.070Z,969.05
2023-02-19T00:12:49.005Z,969.01
2023-02-19T00:13:48.988Z,969.06
2023-02-19T00:14:48.999Z,969.04
2023-02-19T00:15:49.004Z,968.99
2023-02-19T00:16:48.972Z,968.96
2023-02-19T00:17:48.981Z,968.94
2023-02-19T00:18:48.961Z,969.00
2023-02-19T00:19:48.910Z,968.95
2023-02-19T00:20:48.902Z,968.94
2023-02-19T00:21:48.934Z,968.90
2023-02-19T00:22:48.901Z,968.94
2023-02-19T00:23:48.882Z,968.91
2023-02-19T00:24:49.325Z,968.99
2023-02-19T00:25:48.843Z,968.92
2023-02-19T00:26:48.839Z,968.91
2023-02-19T00:27:48.830Z,968.92
2023-02-19T00:28:48.833Z,968.94
2023-02-19T00:29:48.863Z,968.97
2023-02-19T00:30:48.910Z,968.90
2023-02-19T00:31:49.039Z,968.91
2023-02-19T00:32:48.795Z,968.90
2023-02-19T00:33:48.791Z,968.93
2023-02-19T00:34:48.786Z,968.88
2023-02-19T00:35:48.771Z,968.85
2023-02-19T00:36:48.771Z,968.87
2023-02-19T00:37:48.738Z,968.86
2023-02-19T00:38:48.704Z,968.85
2023-02-19T00:39:48.697Z,968.91
2023-02-19T00:40:48.707Z,968.83
2023-02-19T00:41:48.722Z,968.82
2023-02-19T00:42:48.805Z,968.81
2023-02-19T00:43:48.649Z,968.81
2023-02-19T00:44:48.677Z,968.83
2023-02-19T00:45:48.670Z,968.78
2023-02-19T00:46:48.669Z,968.81
2023-02-19T00:47:48.650Z,968.78
2023-02-19T00:48:48.594Z,968.76
2023-02-19T00:49:48.602Z,968.75
2023-02-19T00:50:48.591Z,968.79
2023-02-19T00:51:48.619Z,968.75
2023-02-19T00:52:48.582Z,968.75
2023-02-19T00:53:48.534Z,968.72
2023-02-19T00:54:48.538Z,968.78
2023-02-19T00:55:48.515Z,968.73
2023-02-19T00:56:48.570Z,968.71
2023-02-19T00:57:48.522Z,968.67
2023-02-19T00:58:48.526Z,968.69
2023-02-19T00:59:48.476Z,968.73
2023-02-19T01:00:48.473Z,968.76
2023-02-19T01:01:48.519Z,968.81
2023-02-19T01:02:48.473Z,968.80
2023-02-19T01:03:48.506Z,968.79
2023-02-19T01:04:48.465Z,968.80
2023-02-19T01:05:48.470Z,968.77
2023-02-19T01:06:48.410Z,968.75
2023-02-19T01:07:48.390Z,968.72
2023-02-19T01:08:48.383Z,968.76
2023-02-19T01:09:48.398Z,968.70
2023-02-19T01:10:48.349Z,968.74
2023-02-19T01:11:48.333Z,968.67
2023-02-19T01:12:48.339Z,968.68
2023-02-19T01:13:48.322Z,968.68
2023-02-19T01:14:48.320Z,968.63
2023-02-19T01:15:48.360Z,968.60
2023-02-19T01:16:48.312Z,968.63
2023-02-19T01:17:48.285Z,968.57
2023-02-19T01:18:48.334Z,968.60
2023-02-19T01:19:48.253Z,968.57
2023-02-19T01:20:48.259Z,968.58
2023-02-19T01:21:48.288Z,968.63
2023-02-19T01:22:48.210Z,968.61
2023-02-19T01:23:48.196Z,968.61
2023-02-19T01:24:48.208Z,968.61
2023-02-19T01:25:48.190Z,968.59
2023-02-19T01:26:48.172Z,968.57
2023-02-19T01:27:48.205Z,968.60
2023-02-19T01:28:48.205Z,968.53
2023-02-19T01:29:48.129Z,968.55
2023-02-19T01:30:48.149Z,968.49
2023-02-19T01:31:48.280Z,968.53
2023-02-19T01:32:48.120Z,968.55
2023-02-19T01:33:48.120Z,968.46
2023-02-19T01:34:48.115Z,968.43
2023-02-19T01:35:48.114Z,968.41
2023-02-19T01:36:48.066Z,968.38
2023-02-19T01:37:48.082Z,968.37
2023-02-19T01:38:48.048Z,968.40
2023-02-19T01:39:48.018Z,968.35
2023-02-19T01:40:48.030Z,968.36
2023-02-19T01:41:48.036Z,968.37
2023-02-19T01:42:48.000Z,968.34
2023-02-19T01:43:48.026Z,968.28
2023-02-19T01:44:47.964Z,968.35
2023-02-19T01:45:47.952Z,968.33
2023-02-19T01:46:47.988Z,968.33
2023-02-19T01:47:47.965Z,968.28
2023-02-19T01:48:47.939Z,968.32
2023-02-19T01:49:47.936Z,968.23
2023-02-19T01:50:47.921Z,968.23
2023-02-19T01:51:47.910Z,968.20
2023-02-19T01:52:47.880Z,968.15
2023-02-19T01:53:47.892Z,968.19
2023-02-19T01:54:47.876Z,968.19
2023-02-19T01:55:47.881Z,968.16
2023-02-19T01:56:47.831Z,968.18
2023-02-19T01:57:47.819Z,968.18
2023-02-19T01:58:47.846Z,968.13
2023-02-19T01:59:47.844Z,968.04
2023-02-19T02:00:47.855Z,968.13
2023-02-19T02:01:47.837Z,968.12
2023-02-19T02:02:47.773Z,968.12
2023-02-19T02:03:47.781Z,968.05
2023-02-19T02:04:47.757Z,968.08
2023-02-19T02:05:47.790Z,968.02
2023-02-19T02:06:47.758Z,967.99
2023-02-19T02:07:47.760Z,967.97
2023-02-19T02:08:47.704Z,967.98
2023-02-19T02:09:47.719Z,967.97
2023-02-19T02:10:47.682Z,967.99
2023-02-19T02:11:47.692Z,968.00
2023-02-19T02:12:47.678Z,968.04
2023-02-19T02:13:47.653Z,967.99
2023-02-19T02:14:47.667Z,968.02
2023-02-19T02:15:47.717Z,967.98
2023-02-19T02:16:47.622Z,968.00
2023-02-19T02:17:47.636Z,967.96
2023-02-19T02:18:47.589Z,967.92
2023-02-19T02:19:47.642Z,967.96
2023-02-19T02:20:47.566Z,967.96
2023-02-19T02:21:47.565Z,967.94
2023-02-19T02:22:47.566Z,967.98
2023-02-19T02:23:47.594Z,967.96
2023-02-19T02:24:47.524Z,967.91
2023-02-19T02:25:47.575Z,967.89
2023-02-19T02:26:47.503Z,967.89
2023-02-19T02:27:47.505Z,967.90
2023-02-19T02:28:47.499Z,967.87
2023-02-19T02:29:47.482Z,967.88
2023-02-19T02:30:47.503Z,967.83
2023-02-19T02:31:47.588Z,967.88
2023-02-19T02:32:47.452Z,967.75
2023-02-19T02:33:47.472Z,967.79
2023-02-19T02:34:47.454Z,967.74
2023-02-19T02:35:47.419Z,967.79
2023-02-19T02:36:47.412Z,967.69
2023-02-19T02:37:47.389Z,967.67
2023-02-19T02:38:47.396Z,967.72
2023-02-19T02:39:47.366Z,967.63
2023-02-19T02:40:47.386Z,967.64
2023-02-19T02:41:47.391Z,967.71
2023-02-19T02:42:47.329Z,967.69
2023-02-19T02:43:47.317Z,967.75
2023-02-19T02:44:47.324Z,967.72
2023-02-19T02:45:47.365Z,967.72
2023-02-19T02:46:47.300Z,967.75
2023-02-19T02:47:47.326Z,967.75
2023-02-19T02:48:47.259Z,967.71
2023-02-19T02:49:47.247Z,967.68
2023-02-19T02:50:47.258Z,967.68
2023-02-19T02:51:47.259Z,967.59
2023-02-19T02:52:47.228Z,967.62
2023-02-19T02:53:47.244Z,967.54
2023-02-19T02:54:47.192Z,967.54
2023-02-19T02:55:47.188Z,967.51
2023-02-19T02:56:47.184Z,967.45
2023-02-19T02:57:47.719Z,967.47
2023-02-19T02:58:47.196Z,967.40
2023-02-19T02:59:47.151Z,967.38
2023-02-19T03:00:47.164Z,967.30
2023-02-19T03:01:47.122Z,967.30
2023-02-19T03:02:47.106Z,967.31
2023-02-19T03:03:47.133Z,967.34
2023-02-19T03:04:47.114Z,967.34
2023-02-19T03:05:47.067Z,967.37
2023-02-19T03:06:47.056Z,967.34
2023-02-19T03:07:47.088Z,967.37
2023-02-19T03:08:47.062Z,967.42
2023-02-19T03:09:49.405Z,967.44
2023-02-19T03:10:47.085Z,967.40
2023-02-19T03:11:47.004Z,967.31
2023-02-19T03:12:47.029Z,967.29
2023-02-19T03:13:47.000Z,967.22
2023-02-19T03:14:46.997Z,967.31
2023-02-19T03:15:46.997Z,967.37
2023-02-19T03:16:47.025Z,967.33
2023-02-19T03:17:46.960Z,967.28
2023-02-19T03:18:46.929Z,967.28
2023-02-19T03:19:46.929Z,967.20
2023-02-19T03:20:46.908Z,967.17
2023-02-19T03:21:46.933Z,967.13
2023-02-19T03:22:46.959Z,967.21
2023-02-19T03:23:46.870Z,967.16
2023-02-19T03:24:46.866Z,967.19
2023-02-19T03:25:46.870Z,967.31
2023-02-19T03:26:46.873Z,967.29
2023-02-19T03:27:46.835Z,967.29
2023-02-19T03:28:46.819Z,967.26
2023-02-19T03:29:46.802Z,967.23
2023-02-19T03:30:46.812Z,967.16
2023-02-19T03:31:46.892Z,967.18
2023-02-19T03:32:46.805Z,967.11
2023-02-19T03:33:46.766Z,967.14
2023-02-19T03:34:46.826Z,967.19
2023-02-19T03:35:46.737Z,967.17
2023-02-19T03:36:46.737Z,967.22
2023-02-19T03:37:46.746Z,967.15
2023-02-19T03:38:46.700Z,967.17
2023-02-19T03:39:46.704Z,967.15
2023-02-19T03:40:46.760Z,967.06
2023-02-19T03:41:46.678Z,967.11
2023-02-19T03:42:46.662Z,967.09
2023-02-19T03:43:46.682Z,967.10
2023-02-19T03:44:46.638Z,967.07
2023-02-19T03:45:46.664Z,967.04
2023-02-19T03:46:46.664Z,967.06
2023-02-19T03:47:46.623Z,967.09
2023-02-19T03:48:46.598Z,967.09
2023-02-19T03:49:48.947Z,967.07
2023-02-19T03:50:46.611Z,967.24
2023-02-19T03:51:46.564Z,967.24
2023-02-19T03:52:46.551Z,967.29
2023-02-19T03:53:46.555Z,967.33
2023-02-19T03:54:46.534Z,967.25
2023-02-19T03:55:46.530Z,967.30
2023-02-19T03:56:46.549Z,967.21
2023-02-19T03:57:46.492Z,967.24
2023-02-19T03:58:46.486Z,967.20
2023-02-19T03:59:46.518Z,967.32
2023-02-19T04:00:46.465Z,967.18
2023-02-19T04:01:46.449Z,967.25
2023-02-19T04:02:46.459Z,967.14
2023-02-19T04:03:46.453Z,967.11
2023-02-19T04:04:46.487Z,967.17
2023-02-19T04:05:46.407Z,967.15
2023-02-19T04:06:46.440Z,967.15
2023-02-19T04:07:46.416Z,967.13
2023-02-19T04:08:46.375Z,967.16
2023-02-19T04:09:46.390Z,967.18
2023-02-19T04:10:46.365Z,967.17
2023-02-19T04:11:46.378Z,967.27
2023-02-19T04:12:46.361Z,967.27
2023-02-19T04:13:46.318Z,967.30
2023-02-19T04:14:46.326Z,967.21
2023-02-19T04:15:46.297Z,967.25
2023-02-19T04:16:46.321Z,967.23
2023-02-19T04:17:46.293Z,967.27
2023-02-19T04:18:46.302Z,967.26
2023-02-19T04:19:46.290Z,967.19
2023-02-19T04:20:46.240Z,967.22
2023-02-19T04:21:46.294Z,967.16
2023-02-19T04:22:46.219Z,967.19
2023-02-19T04:23:46.220Z,967.16
2023-02-19T04:24:46.237Z,967.21
2023-02-19T04:25:46.229Z,967.17
2023-02-19T04:26:46.175Z,967.11
2023-02-19T04:27:46.183Z,967.17
2023-02-19T04:28:46.193Z,967.14
2023-02-19T04:29:46.162Z,967.25
2023-02-19T04:30:46.138Z,967.24
2023-02-19T04:31:46.193Z,967.20
2023-02-19T04:32:46.104Z,967.26
2023-02-19T04:33:46.119Z,967.22
2023-02-19T04:34:46.095Z,967.23
2023-02-19T04:35:46.086Z,967.28
2023-02-19T04:36:46.110Z,967.31
2023-02-19T04:37:46.047Z,967.31
2023-02-19T04:38:46.042Z,967.34
2023-02-19T04:39:46.061Z,967.31
2023-02-19T04:40:46.021Z,967.33
2023-02-19T04:41:46.039Z,967.33
2023-02-19T04:42:46.049Z,967.33
2023-02-19T04:43:45.980Z,967.35
2023-02-19T04:44:45.974Z,967.30
2023-02-19T04:45:45.960Z,967.39
2023-02-19T04:46:45.967Z,967.41
2023-02-19T04:47:45.934Z,967.36
2023-02-19T04:48:45.932Z,967.36
2023-02-19T04:49:45.911Z,967.39
2023-02-19T04:50:45.914Z,967.46
2023-02-19T04:51:45.936Z,967.43
2023-02-19T04:52:45.900Z,967.43
2023-02-19T04:53:45.904Z,967.46
2023-02-19T04:54:45.875Z,967.40
2023-02-19T04:55:45.854Z,967.44
2023-02-19T04:56:45.848Z,967.46
2023-02-19T04:57:45.874Z,967.41
2023-02-19T04:58:45.847Z,967.35
2023-02-19T04:59:45.804Z,967.40
2023-02-19T05:00:45.789Z,967.42
2023-02-19T05:01:45.820Z,967.42
2023-02-19T05:02:45.838Z,967.37
2023-02-19T05:03:45.772Z,967.35
2023-02-19T05:04:45.746Z,967.39
2023-02-19T05:05:45.736Z,967.39
2023-02-19T05:06:45.748Z,967.39
2023-02-19T05:07:45.739Z,967.42
2023-02-19T05:08:45.707Z,967.40
2023-02-19T05:09:45.702Z,967.43
2023-02-19T05:10:45.710Z,967.40
2023-02-19T05:11:45.668Z,967.38
2023-02-19T05:12:46.203Z,967.46
2023-02-19T05:13:45.719Z,967.39
2023-02-19T05:14:45.651Z,967.53
2023-02-19T05:15:45.678Z,967.50
2023-02-19T05:16:45.658Z,967.57
2023-02-19T05:17:45.602Z,967.47
2023-02-19T05:18:45.599Z,967.59
2023-02-19T05:19:45.608Z,967.42
2023-02-19T05:20:45.574Z,967.55
2023-02-19T05:21:45.557Z,967.60
2023-02-19T05:22:45.584Z,967.62
2023-02-19T05:23:45.550Z,967.60
2023-02-19T05:24:45.538Z,967.65
2023-02-19T05:25:45.532Z,967.65
2023-02-19T05:26:45.662Z,967.65
2023-02-19T05:27:45.529Z,967.61
2023-02-19T05:28:45.481Z,967.63
2023-02-19T05:29:45.467Z,967.64
2023-02-19T05:30:45.485Z,967.63
2023-02-19T05:31:45.613Z,967.60
2023-02-19T05:32:45.447Z,967.65
2023-02-19T05:33:45.455Z,967.62
2023-02-19T05:34:45.411Z,967.68
2023-02-19T05:35:45.412Z,967.62
2023-02-19T05:36:45.392Z,967.67
2023-02-19T05:37:45.409Z,967.68
2023-02-19T05:38:45.410Z,967.74
2023-02-19T05:39:45.396Z,967.70
2023-02-19T05:40:45.342Z,967.74
2023-02-19T05:41:45.342Z,967.76
2023-02-19T05:42:45.358Z,967.73
2023-02-19T05:43:45.363Z,967.78
2023-02-19T05:44:45.297Z,967.64
2023-02-19T05:45:45.288Z,967.72
2023-02-19T05:46:45.353Z,967.65
2023-02-19T05:47:45.278Z,967.70
2023-02-19T05:48:45.291Z,967.68
2023-02-19T05:49:45.280Z,967.71
2023-02-19T05:50:45.243Z,967.70
2023-02-19T05:51:45.221Z,967.75
2023-02-19T05:52:45.242Z,967.76
2023-02-19T05:53:45.232Z,967.69
2023-02-19T05:54:45.202Z,967.75
2023-02-19T05:55:45.208Z,967.69
2023-02-19T05:56:45.213Z,967.76
2023-02-19T05:57:45.176Z,967.74
2023-02-19T05:58:45.151Z,967.71
2023-02-19T05:59:45.133Z,967.82
2023-02-19T06:00:45.131Z,967.82
2023-02-19T06:01:45.110Z,967.79
2023-02-19T06:02:45.259Z,967.78
2023-02-19T06:03:45.166Z,967.75
2023-02-19T06:04:45.098Z,967.79
2023-02-19T06:05:45.076Z,967.78
2023-02-19T06:06:45.078Z,967.78
2023-02-19T06:07:45.046Z,967.83
2023-02-19T06:08:45.038Z,967.79
2023-02-19T06:09:45.093Z,967.83
2023-02-19T06:10:45.029Z,967.90
2023-02-19T06:11:45.028Z,967.86
2023-02-19T06:12:45.008Z,967.87
2023-02-19T06:13:44.978Z,967.85
2023-02-19T06:14:44.989Z,967.86
2023-02-19T06:15:44.987Z,967.93
2023-02-19T06:16:44.945Z,967.90
2023-02-19T06:17:44.967Z,967.89
2023-02-19T06:18:44.932Z,967.95
2023-02-19T06:19:44.909Z,967.91
2023-02-19T06:20:44.924Z,967.90
2023-02-19T06:21:44.910Z,967.96
2023-02-19T06:22:44.922Z,967.89
2023-02-19T06:23:44.882Z,967.91
2023-02-19T06:24:44.856Z,967.91
2023-02-19T06:25:44.867Z,967.97
2023-02-19T06:26:44.864Z,967.91
2023-02-19T06:27:44.852Z,967.94
2023-02-19T06:28:44.841Z,967.99
2023-02-19T06:29:44.833Z,968.03
2023-02-19T06:30:44.792Z,968.00
2023-02-19T06:31:44.995Z,968.02
2023-02-19T06:32:44.772Z,968.04
2023-02-19T06:33:44.788Z,968.04
2023-02-19T06:34:44.790Z,968.07
2023-02-19T06:35:44.737Z,968.21
2023-02-19T06:36:44.731Z,968.23
2023-02-19T06:37:44.716Z,968.19
2023-02-19T06:38:44.777Z,968.22
2023-02-19T06:39:44.706Z,968.22
2023-02-19T06:40:44.726Z,968.27
2023-02-19T06:41:44.672Z,968.29
2023-02-19T06:42:44.661Z,968.22
2023-02-19T06:43:44.693Z,968.27
2023-02-19T06:44:44.654Z,968.30
2023-02-19T06:45:44.634Z,968.26
2023-02-19T06:46:44.675Z,968.41
2023-02-19T06:47:44.649Z,968.37
2023-02-19T06:48:44.620Z,968.35
2023-02-19T06:49:44.582Z,968.38
2023-02-19T06:50:44.591Z,968.50
2023-02-19T06:51:44.600Z,968.50
2023-02-19T06:52:44.574Z,968.53
2023-02-19T06:53:44.553Z,968.56
2023-02-19T06:54:44.530Z,968.52
2023-02-19T06:55:44.523Z,968.52
2023-02-19T06:56:46.999Z,968.56
2023-02-19T06:57:44.516Z,968.60
2023-02-19T06:58:44.484Z,968.51
2023-02-19T06:59:44.484Z,968.56
2023-02-19T07:00:44.519Z,968.53
2023-02-19T07:01:44.472Z,968.57
2023-02-19T07:02:44.444Z,968.63
2023-02-19T07:03:44.472Z,968.57
2023-02-19T07:04:44.593Z,968.65
2023-02-19T07:05:44.401Z,968.60
2023-02-19T07:06:44.423Z,968.67
2023-02-19T07:07:44.403Z,968.69
2023-02-19T07:08:44.382Z,968.68
2023-02-19T07:09:44.395Z,968.67
2023-02-19T07:10:44.396Z,968.75
2023-02-19T07:11:44.358Z,968.75
2023-02-19T07:12:44.330Z,968.83
2023-02-19T07:13:44.310Z,968.85
2023-02-19T07:14:44.334Z,968.89
2023-02-19T07:15:44.315Z,968.94
2023-02-19T07:16:44.337Z,968.97
2023-02-19T07:17:44.271Z,968.89
2023-02-19T07:18:44.274Z,968.93
2023-02-19T07:19:44.278Z,968.95
2023-02-19T07:20:44.249Z,968.95
2023-02-19T07:21:44.219Z,968.97
2023-02-19T07:22:44.211Z,968.97
2023-02-19T07:23:44.268Z,969.01
2023-02-19T07:24:46.228Z,969.03
2023-02-19T07:25:44.194Z,969.03
2023-02-19T07:26:44.181Z,969.03
2023-02-19T07:27:44.292Z,969.01
2023-02-19T07:28:44.143Z,969.06
2023-02-19T07:29:44.134Z,969.06
2023-02-19T07:30:44.245Z,969.15
2023-02-19T07:31:44.138Z,969.19
2023-02-19T07:32:44.130Z,969.20
2023-02-19T07:33:44.098Z,969.13
2023-02-19T07:34:44.074Z,969.19
2023-02-19T07:35:44.082Z,969.16
2023-02-19T07:36:44.099Z,969.31
2023-02-19T07:37:44.051Z,969.34
2023-02-19T07:38:44.031Z,969.25
2023-02-19T07:39:44.019Z,969.27
2023-02-19T07:40:44.011Z,969.35
2023-02-19T07:41:44.048Z,969.35
2023-02-19T07:42:44.014Z,969.30
2023-02-19T07:43:43.989Z,969.39
2023-02-19T07:44:43.968Z,969.40
2023-02-19T07:45:43.986Z,969.49
2023-02-19T07:46:43.948Z,969.51
2023-02-19T07:47:43.964Z,969.46
2023-02-19T07:48:43.936Z,969.46
2023-02-19T07:49:43.946Z,969.55
2023-02-19T07:50:43.920Z,969.51
2023-02-19T07:51:43.887Z,969.52
2023-02-19T07:52:44.304Z,969.52
2023-02-19T07:53:43.868Z,969.51
2023-02-19T07:54:43.879Z,969.60
2023-02-19T07:55:43.845Z,969.49
2023-02-19T07:56:43.845Z,969.64
2023-02-19T07:57:43.823Z,969.62
2023-02-19T07:58:43.834Z,969.54
2023-02-19T07:59:43.811Z,969.60
2023-02-19T08:00:43.807Z,969.79
2023-02-19T08:01:43.826Z,969.64
2023-02-19T08:02:43.777Z,969.75
2023-02-19T08:03:43.756Z,969.68
2023-02-19T08:04:43.752Z,969.80
2023-02-19T08:05:43.773Z,969.83
2023-02-19T08:06:43.755Z,969.74
2023-02-19T08:07:43.710Z,969.84
2023-02-19T08:08:43.709Z,969.81
2023-02-19T08:09:43.736Z,969.79
2023-02-19T08:10:43.679Z,969.76
2023-02-19T08:11:43.680Z,969.84
2023-02-19T08:12:43.655Z,969.78
2023-02-19T08:13:43.642Z,969.83
2023-02-19T08:14:43.672Z,969.78
2023-02-19T08:15:43.635Z,969.91
2023-02-19T08:16:43.628Z,969.94
2023-02-19T08:17:43.622Z,969.91
2023-02-19T08:18:43.633Z,969.95
2023-02-19T08:19:43.575Z,970.02
2023-02-19T08:20:43.584Z,969.87
2023-02-19T08:21:43.581Z,969.84
2023-02-19T08:22:43.556Z,969.76
2023-02-19T08:23:43.555Z,969.77
2023-02-19T08:24:43.523Z,969.77
2023-02-19T08:25:43.508Z,969.84
2023-02-19T08:26:43.813Z,969.76
2023-02-19T08:27:43.488Z,969.79
2023-02-19T08:28:43.485Z,969.87
2023-02-19T08:29:43.461Z,969.82
2023-02-19T08:30:43.581Z,969.83
2023-02-19T08:31:43.593Z,969.86
2023-02-19T08:32:43.466Z,969.92
2023-02-19T08:33:43.446Z,969.97
2023-02-19T08:34:43.434Z,969.96
2023-02-19T08:35:43.405Z,969.91
2023-02-19T08:36:43.408Z,970.12
2023-02-19T08:37:43.389Z,970.12
2023-02-19T08:38:43.411Z,970.22
2023-02-19T08:39:43.399Z,970.20
2023-02-19T08:40:43.368Z,970.24
2023-02-19T08:41:43.327Z,970.18
2023-02-19T08:42:43.343Z,970.29
2023-02-19T08:43:43.362Z,970.23
2023-02-19T08:44:43.308Z,970.24
2023-02-19T08:45:43.326Z,970.33
2023-02-19T08:46:43.279Z,970.18
2023-02-19T08:47:43.259Z,970.30
2023-02-19T08:48:43.252Z,970.18
2023-02-19T08:49:43.257Z,970.22
2023-02-19T08:50:43.241Z,970.14
2023-02-19T08:51:43.237Z,970.17
2023-02-19T08:52:43.203Z,970.17
2023-02-19T08:53:43.212Z,970.15
2023-02-19T08:54:43.183Z,970.20
2023-02-19T08:55:43.190Z,970.24
2023-02-19T08:56:43.212Z,970.25
2023-02-19T08:57:43.167Z,970.19
2023-02-19T08:58:43.137Z,970.30
2023-02-19T08:59:43.144Z,970.34
2023-02-19T09:00:43.119Z,970.24
2023-02-19T09:01:43.218Z,970.30
2023-02-19T09:02:43.141Z,970.21
2023-02-19T09:03:43.086Z,970.14
2023-02-19T09:04:43.107Z,970.15
2023-02-19T09:05:43.054Z,970.19
2023-02-19T09:06:43.058Z,970.12
2023-02-19T09:07:43.070Z,970.17
2023-02-19T09:08:43.031Z,970.13
2023-02-19T09:09:43.023Z,970.22
2023-02-19T09:10:43.024Z,970.13
2023-02-19T09:11:42.991Z,970.14
2023-02-19T09:12:42.996Z,970.16
2023-02-19T09:13:43.002Z,970.15
2023-02-19T09:14:43.010Z,970.14
2023-02-19T09:15:43.036Z,970.12
2023-02-19T09:16:42.950Z,970.18
2023-02-19T09:17:42.921Z,970.06
2023-02-19T09:18:42.912Z,970.16
2023-02-19T09:19:43.033Z,970.16
2023-02-19T09:20:42.931Z,970.15
2023-02-19T09:21:42.881Z,970.18
2023-02-19T09:22:42.898Z,970.21
2023-02-19T09:23:42.878Z,970.19
2023-02-19T09:24:42.848Z,970.19
2023-02-19T09:25:42.877Z,970.21
2023-02-19T09:26:42.826Z,970.23
2023-02-19T09:27:42.832Z,970.15
2023-02-19T09:28:42.802Z,970.17
2023-02-19T09:29:42.809Z,970.17
2023-02-19T09:30:42.869Z,970.21
2023-02-19T09:31:42.963Z,970.18
2023-02-19T09:32:42.757Z,970.30
2023-02-19T09:33:42.743Z,970.30
2023-02-19T09:34:42.775Z,970.32
2023-02-19T09:35:42.723Z,970.34
2023-02-19T09:36:42.741Z,970.34
2023-02-19T09:37:42.734Z,970.31
2023-02-19T09:38:42.695Z,970.40
2023-02-19T09:39:42.678Z,970.40
2023-02-19T09:40:42.816Z,970.42
2023-02-19T09:41:42.660Z,970.41
2023-02-19T09:42:42.686Z,970.43
2023-02-19T09:43:42.637Z,970.45
2023-02-19T09:44:42.671Z,970.45
2023-02-19T09:45:50.908Z,970.48
2023-02-19T09:46:42.605Z,970.46
2023-02-19T09:47:42.596Z,970.39
2023-02-19T09:48:42.579Z,970.38
2023-02-19T09:49:42.567Z,970.42
2023-02-19T09:50:42.602Z,970.38
2023-02-19T09:51:42.545Z,970.45
2023-02-19T09:52:42.543Z,970.40
2023-02-19T09:53:42.521Z,970.51
2023-02-19T09:54:42.522Z,970.38
2023-02-19T09:55:42.516Z,970.40
2023-02-19T09:56:42.527Z,970.45
2023-02-19T09:57:42.509Z,970.43
2023-02-19T09:58:42.467Z,970.42
2023-02-19T09:59:42.473Z,970.40
2023-02-19T10:00:42.462Z,970.40
2023-02-19T10:01:42.495Z,970.45
2023-02-19T10:02:42.437Z,970.48
2023-02-19T10:03:42.410Z,970.52
2023-02-19T10:04:42.423Z,970.51
2023-02-19T10:05:42.410Z,970.44
2023-02-19T10:06:42.404Z,970.50
2023-02-19T10:07:42.398Z,970.50
2023-02-19T10:08:42.369Z,970.58
2023-02-19T10:09:42.343Z,970.57
2023-02-19T10:10:42.331Z,970.52
2023-02-19T10:11:51.369Z,970.47
2023-02-19T10:12:42.310Z,970.48
2023-02-19T10:13:42.306Z,970.52
2023-02-19T10:14:42.289Z,970.54
2023-02-19T10:15:42.281Z,970.50
2023-02-19T10:16:42.268Z,970.54
2023-02-19T10:17:42.274Z,970.51
2023-02-19T10:18:42.277Z,970.51
2023-02-19T10:19:42.245Z,970.57
2023-02-19T10:20:42.220Z,970.55
2023-02-19T10:21:42.208Z,970.61
2023-02-19T10:22:42.236Z,970.61
2023-02-19T10:23:42.200Z,970.60
2023-02-19T10:24:42.217Z,970.64
2023-02-19T10:25:42.186Z,970.68
2023-02-19T10:26:42.150Z,970.66
2023-02-19T10:27:42.165Z,970.67
2023-02-19T10:28:42.166Z,970.71
2023-02-19T10:29:50.125Z,970.68
2023-02-19T10:30:42.113Z,970.78
2023-02-19T10:31:42.234Z,970.65
2023-02-19T10:32:42.087Z,970.74
2023-02-19T10:33:42.093Z,970.74
2023-02-19T10:34:42.082Z,970.72
2023-02-19T10:35:42.060Z,970.77
2023-02-19T10:36:50.930Z,970.59
2023-02-19T10:37:42.047Z,970.59
2023-02-19T10:38:42.031Z,970.64
2023-02-19T10:39:42.079Z,970.76
2023-02-19T10:40:41.998Z,970.65
2023-02-19T10:41:44.107Z,970.70
2023-02-19T10:42:41.991Z,970.67
2023-02-19T10:43:41.985Z,970.71
2023-02-19T10:44:41.966Z,970.65
2023-02-19T10:45:41.987Z,970.75
2023-02-19T10:46:41.975Z,970.72
2023-02-19T10:47:41.922Z,970.73
2023-02-19T10:48:41.916Z,970.76
2023-02-19T10:49:41.926Z,970.69
2023-02-19T10:50:41.908Z,970.80
2023-02-19T10:51:41.996Z,970.80
2023-02-19T10:52:41.864Z,970.80
2023-02-19T10:53:41.856Z,970.74
2023-02-19T10:54:41.847Z,970.73
2023-02-19T10:55:41.832Z,970.74
2023-02-19T10:56:41.863Z,970.73
2023-02-19T10:57:41.847Z,970.75
2023-02-19T10:58:41.795Z,970.76
2023-02-19T10:59:41.814Z,970.79
2023-02-19T11:00:41.793Z,970.72
2023-02-19T11:01:41.829Z,970.72
2023-02-19T11:02:41.779Z,970.75
2023-02-19T11:03:41.745Z,970.73
2023-02-19T11:04:41.747Z,970.73
2023-02-19T11:05:41.759Z,970.73
2023-02-19T11:06:41.732Z,970.63
2023-02-19T11:07:41.709Z,970.56
2023-02-19T11:08:41.714Z,970.58
2023-02-19T11:09:41.677Z,970.60
2023-02-19T11:10:41.719Z,970.53
2023-02-19T11:11:41.664Z,970.60
2023-02-19T11:12:41.643Z,970.58
2023-02-19T11:13:41.639Z,970.58
2023-02-19T11:14:41.642Z,970.62
2023-02-19T11:15:41.621Z,970.65
2023-02-19T11:16:41.670Z,970.75
2023-02-19T11:17:41.601Z,970.73
2023-02-19T11:18:41.579Z,970.75
2023-02-19T11:19:41.577Z,970.69
2023-02-19T11:20:41.579Z,970.79
2023-02-19T11:21:41.541Z,970.72
2023-02-19T11:22:41.568Z,970.75
2023-02-19T11:23:41.541Z,970.71
2023-02-19T11:24:41.545Z,970.81
2023-02-19T11:25:41.509Z,970.82
2023-02-19T11:26:41.540Z,970.82
2023-02-19T11:27:41.473Z,970.82
2023-02-19T11:28:41.473Z,970.88
2023-02-19T11:29:41.452Z,970.86
2023-02-19T11:30:41.587Z,970.95
2023-02-19T11:31:41.655Z,970.90
2023-02-19T11:32:41.469Z,970.94
2023-02-19T11:33:41.408Z,970.90
2023-02-19T11:34:41.514Z,970.95
2023-02-19T11:35:41.386Z,970.95
2023-02-19T11:36:41.381Z,970.95
2023-02-19T11:37:41.366Z,970.92
2023-02-19T11:38:41.358Z,970.93
2023-02-19T11:39:41.362Z,970.89
2023-02-19T11:40:41.354Z,970.89
2023-02-19T11:41:41.328Z,970.88
2023-02-19T11:42:41.324Z,970.79
2023-02-19T11:43:41.336Z,970.82
2023-02-19T11:44:41.292Z,970.80
2023-02-19T11:45:41.388Z,970.82
2023-02-19T11:46:41.336Z,970.83
2023-02-19T11:47:41.268Z,970.79
2023-02-19T11:48:41.264Z,970.89
2023-02-19T11:49:41.277Z,970.85
2023-02-19T11:50:41.224Z,970.80
2023-02-19T11:51:41.264Z,970.84
2023-02-19T11:52:41.202Z,970.82
2023-02-19T11:53:41.240Z,970.77
2023-02-19T11:54:41.185Z,970.83
2023-02-19T11:55:41.178Z,970.84
2023-02-19T11:56:41.156Z,970.79
2023-02-19T11:57:41.187Z,970.72
2023-02-19T11:58:41.143Z,970.71
2023-02-19T11:59:41.146Z,970.72
2023-02-19T12:00:41.109Z,970.75
2023-02-19T12:01:41.168Z,970.69
2023-02-19T12:02:41.088Z,970.61
2023-02-19T12:03:41.116Z,970.60
2023-02-19T12:04:41.110Z,970.58
2023-02-19T12:05:41.072Z,970.57
2023-02-19T12:06:41.044Z,970.63
2023-02-19T12:07:41.034Z,970.62
2023-02-19T12:08:41.040Z,970.67
2023-02-19T12:09:41.048Z,970.73
2023-02-19T12:10:41.015Z,970.60
2023-02-19T12:11:41.008Z,970.57
2023-02-19T12:12:40.976Z,970.62
2023-02-19T12:13:40.967Z,970.63
2023-02-19T12:14:40.975Z,970.55
2023-02-19T12:15:40.995Z,970.62
2023-02-19T12:16:40.988Z,970.60
2023-02-19T12:17:40.924Z,970.56
2023-02-19T12:18:40.913Z,970.64
2023-02-19T12:19:40.899Z,970.57
2023-02-19T12:20:40.918Z,970.61
2023-02-19T12:21:40.906Z,970.51
2023-02-19T12:22:40.879Z,970.69
2023-02-19T12:23:40.857Z,970.65
2023-02-19T12:24:40.853Z,970.66
2023-02-19T12:25:40.834Z,970.64
2023-02-19T12:26:40.845Z,970.73
2023-02-19T12:27:40.839Z,970.55
2023-02-19T12:28:40.820Z,970.70